PWSweather.com
Personal Weather Stations
Station Observations
FAUSKE
Nordland, Norway, FauskeNO 8200

Nordland, NorwayFauskeNO 8200

Lat: 67.2607586, Lon: 15.4114204

Elevation: 40

Station Type: Davis Vantage PRO2

http://www.bjornli.net/weather.html

High Low Average
Temperature 52.2°F11.2°C 46.6°F8.1°C 48.6°F9.2°C
Dew Point 40.9°F4.9°C 38.5°F3.6°C 39.8°F4.3°C
Winds 22.0 mph 35.4 kmh Calm Calm 10.0 mph SE16.1 kmh SE
Wind Gusts 30.0 mph48.3 kmh -- 15.0 mph24.1 kmh
Humidity 77% 62% 72%
Pressure 29.38 in994.9 mb 29.13 in986.5 mb -
Precipitation 0.00 in0.0 mm - -
Hour Temp Dew Point Humidity Winds Wind Gusts Pressure Precip Precip Rate Daily Precip Total
12:00 AM 47.2°F8.4°C 39.7°F4.3°C 75% 7.0 mph SSE11.3 kmh SSE 11.0 mph17.7 kmh 29.38 in994.9 mb 0.00 in0.0 mm 0.00 in0.0 mm 0.00 in0.0 mm
12:10 AM 47.5°F8.6°C 39.6°F4.2°C 74% 8.0 mph SSE12.9 kmh SSE 12.0 mph19.3 kmh 29.37 in994.6 mb 0.00 in0.0 mm 0.00 in0.0 mm 0.00 in0.0 mm
12:30 AM 47.7°F8.7°C 39.1°F3.9°C 72% 9.0 mph SE14.5 kmh SE 13.0 mph20.9 kmh 29.35 in993.9 mb 0.00 in0.0 mm 0.00 in0.0 mm 0.00 in0.0 mm
12:39 AM 48.0°F8.9°C 39.4°F4.1°C 72% 8.0 mph SE12.9 kmh SE 19.0 mph30.6 kmh 29.34 in993.6 mb 0.00 in0.0 mm 0.00 in0.0 mm 0.00 in0.0 mm
01:00 AM 48.4°F9.1°C 39.1°F3.9°C 70% 17.0 mph SE27.4 kmh SE 17.0 mph27.4 kmh 29.33 in993.2 mb 0.00 in0.0 mm 0.00 in0.0 mm 0.00 in0.0 mm
01:09 AM 48.5°F9.2°C 38.8°F3.8°C 69% 16.0 mph SE25.7 kmh SE 21.0 mph33.8 kmh 29.31 in992.6 mb 0.00 in0.0 mm 0.00 in0.0 mm 0.00 in0.0 mm
01:30 AM 48.5°F9.2°C 38.8°F3.8°C 69% 16.0 mph SE25.7 kmh SE 18.0 mph29.0 kmh 29.30 in992.2 mb 0.00 in0.0 mm 0.00 in0.0 mm 0.00 in0.0 mm
01:39 AM 48.3°F9.1°C 38.6°F3.7°C 69% 17.0 mph ESE27.4 kmh ESE 21.0 mph33.8 kmh 29.30 in992.2 mb 0.00 in0.0 mm 0.00 in0.0 mm 0.00 in0.0 mm
02:00 AM 48.3°F9.1°C 38.6°F3.7°C 69% 13.0 mph SE20.9 kmh SE 13.0 mph20.9 kmh 29.28 in991.5 mb 0.00 in0.0 mm 0.00 in0.0 mm 0.00 in0.0 mm
02:10 AM 48.3°F9.1°C 38.6°F3.7°C 69% 18.0 mph SE29.0 kmh SE 27.0 mph43.5 kmh 29.27 in991.2 mb 0.00 in0.0 mm 0.00 in0.0 mm 0.00 in0.0 mm
02:30 AM 48.4°F9.1°C 38.7°F3.7°C 69% 15.0 mph ESE24.1 kmh ESE 30.0 mph48.3 kmh 29.26 in990.9 mb 0.00 in0.0 mm 0.00 in0.0 mm 0.00 in0.0 mm
02:40 AM 48.3°F9.1°C 38.6°F3.7°C 69% 22.0 mph SE35.4 kmh SE 28.0 mph45.1 kmh 29.25 in990.5 mb 0.00 in0.0 mm 0.00 in0.0 mm 0.00 in0.0 mm
03:00 AM 48.2°F9.0°C 38.5°F3.6°C 69% 12.0 mph ESE19.3 kmh ESE 22.0 mph35.4 kmh 29.23 in989.8 mb 0.00 in0.0 mm 0.00 in0.0 mm 0.00 in0.0 mm
03:10 AM 48.1°F8.9°C 38.8°F3.8°C 70% 17.0 mph SSE27.4 kmh SSE 27.0 mph43.5 kmh 29.22 in989.5 mb 0.00 in0.0 mm 0.00 in0.0 mm 0.00 in0.0 mm
03:30 AM 48.1°F8.9°C 39.2°F4.0°C 71% 18.0 mph SE29.0 kmh SE 18.0 mph29.0 kmh 29.21 in989.2 mb 0.00 in0.0 mm 0.00 in0.0 mm 0.00 in0.0 mm
03:40 AM 48.1°F8.9°C 39.5°F4.2°C 72% 19.0 mph SE30.6 kmh SE 28.0 mph45.1 kmh 29.21 in989.2 mb 0.00 in0.0 mm 0.00 in0.0 mm 0.00 in0.0 mm
04:00 AM 48.0°F8.9°C 39.8°F4.3°C 73% 14.0 mph ESE22.5 kmh ESE 17.0 mph27.4 kmh 29.20 in988.8 mb 0.00 in0.0 mm 0.00 in0.0 mm 0.00 in0.0 mm
04:10 AM 48.0°F8.9°C 39.8°F4.3°C 73% 15.0 mph ESE24.1 kmh ESE 26.0 mph41.8 kmh 29.20 in988.8 mb 0.00 in0.0 mm 0.00 in0.0 mm 0.00 in0.0 mm
04:30 AM 47.9°F8.8°C 39.7°F4.3°C 73% 20.0 mph ESE32.2 kmh ESE 20.0 mph32.2 kmh 29.19 in988.5 mb 0.00 in0.0 mm 0.00 in0.0 mm 0.00 in0.0 mm
04:40 AM 47.7°F8.7°C 39.8°F4.3°C 74% 20.0 mph SE32.2 kmh SE 25.0 mph40.2 kmh 29.19 in988.5 mb 0.00 in0.0 mm 0.00 in0.0 mm 0.00 in0.0 mm
05:00 AM 47.3°F8.5°C 40.1°F4.5°C 76% 16.0 mph SE25.7 kmh SE 17.0 mph27.4 kmh 29.17 in987.8 mb 0.00 in0.0 mm 0.00 in0.0 mm 0.00 in0.0 mm
05:10 AM 47.3°F8.5°C 40.1°F4.5°C 76% 18.0 mph SE29.0 kmh SE 27.0 mph43.5 kmh 29.17 in987.8 mb 0.00 in0.0 mm 0.00 in0.0 mm 0.00 in0.0 mm
05:30 AM 47.3°F8.5°C 39.8°F4.3°C 75% 18.0 mph SE29.0 kmh SE 18.0 mph29.0 kmh 29.16 in987.5 mb 0.00 in0.0 mm 0.00 in0.0 mm 0.00 in0.0 mm
05:40 AM 47.2°F8.4°C 39.7°F4.3°C 75% 12.0 mph SE19.3 kmh SE 24.0 mph38.6 kmh 29.16 in987.5 mb 0.00 in0.0 mm 0.00 in0.0 mm 0.00 in0.0 mm
06:00 AM 47.3°F8.5°C 39.5°F4.2°C 74% 18.0 mph SE29.0 kmh SE 24.0 mph38.6 kmh 29.15 in987.1 mb 0.00 in0.0 mm 0.00 in0.0 mm 0.00 in0.0 mm
06:10 AM 47.4°F8.6°C 39.5°F4.2°C 74% 18.0 mph SE29.0 kmh SE 24.0 mph38.6 kmh 29.15 in987.1 mb 0.00 in0.0 mm 0.00 in0.0 mm 0.00 in0.0 mm
06:30 AM 47.4°F8.6°C 39.2°F4.0°C 73% 12.0 mph SE19.3 kmh SE 12.0 mph19.3 kmh 29.15 in987.1 mb 0.00 in0.0 mm 0.00 in0.0 mm 0.00 in0.0 mm
06:40 AM 47.4°F8.6°C 39.2°F4.0°C 73% 10.0 mph SSE16.1 kmh SSE 20.0 mph32.2 kmh 29.15 in987.1 mb 0.00 in0.0 mm 0.00 in0.0 mm 0.00 in0.0 mm
07:00 AM 47.5°F8.6°C 39.6°F4.2°C 74% 11.0 mph SE17.7 kmh SE 17.0 mph27.4 kmh 29.15 in987.1 mb 0.00 in0.0 mm 0.00 in0.0 mm 0.00 in0.0 mm
07:10 AM 47.5°F8.6°C 39.6°F4.2°C 74% 10.0 mph SE16.1 kmh SE 21.0 mph33.8 kmh 29.14 in986.8 mb 0.00 in0.0 mm 0.00 in0.0 mm 0.00 in0.0 mm
07:30 AM 47.5°F8.6°C 39.6°F4.2°C 74% 13.0 mph SE20.9 kmh SE 13.0 mph20.9 kmh 29.14 in986.8 mb 0.01 in0.3 mm 0.03 in0.8 mm 0.01 in0.3 mm
07:40 AM 47.4°F8.6°C 39.9°F4.4°C 75% 15.0 mph SE24.1 kmh SE 19.0 mph30.6 kmh 29.14 in986.8 mb 0.01 in0.3 mm 0.00 in0.0 mm 0.01 in0.3 mm
08:00 AM 47.1°F8.4°C 39.6°F4.2°C 75% 8.0 mph SE12.9 kmh SE 11.0 mph17.7 kmh 29.14 in986.8 mb 0.01 in0.3 mm 0.00 in0.0 mm 0.01 in0.3 mm
08:10 AM 46.9°F8.3°C 39.7°F4.3°C 76% 14.0 mph SE22.5 kmh SE 21.0 mph33.8 kmh 29.13 in986.5 mb 0.01 in0.3 mm 0.00 in0.0 mm 0.01 in0.3 mm
08:30 AM 46.7°F8.2°C 39.6°F4.2°C 76% 18.0 mph E29.0 kmh E 21.0 mph33.8 kmh 29.13 in986.5 mb 0.00 in0.0 mm 0.00 in0.0 mm 0.01 in0.3 mm
03:30 PM 52.1°F11.2°C 39.5°F4.2°C 62% 13.0 mph SE20.9 kmh SE 22.0 mph35.4 kmh 29.16 in987.5 mb 0.00 in0.0 mm 0.00 in0.0 mm 0.01 in0.3 mm
03:40 PM 51.9°F11.1°C 40.1°F4.5°C 64% 13.0 mph SE20.9 kmh SE 18.0 mph29.0 kmh 29.17 in987.8 mb 0.00 in0.0 mm 0.00 in0.0 mm 0.01 in0.3 mm
04:00 PM 52.0°F11.1°C 39.8°F4.3°C 63% 12.0 mph SE19.3 kmh SE 20.0 mph32.2 kmh 29.17 in987.8 mb 0.00 in0.0 mm 0.00 in0.0 mm 0.01 in0.3 mm
04:10 PM 51.5°F10.8°C 40.5°F4.7°C 66% 6.0 mph SSE9.7 kmh SSE 15.0 mph24.1 kmh 29.17 in987.8 mb 0.00 in0.0 mm 0.00 in0.0 mm 0.01 in0.3 mm
04:30 PM 51.3°F10.7°C 40.0°F4.4°C 65% 6.0 mph SSE9.7 kmh SSE 6.0 mph9.7 kmh 29.18 in988.1 mb 0.00 in0.0 mm 0.00 in0.0 mm 0.01 in0.3 mm
04:40 PM 51.1°F10.6°C 39.8°F4.3°C 65% 11.0 mph SSE17.7 kmh SSE 19.0 mph30.6 kmh 29.18 in988.1 mb 0.00 in0.0 mm 0.00 in0.0 mm 0.01 in0.3 mm
05:00 PM 50.6°F10.3°C 40.1°F4.5°C 67% 3.0 mph SE4.8 kmh SE 7.0 mph11.3 kmh 29.19 in988.5 mb 0.00 in0.0 mm 0.00 in0.0 mm 0.01 in0.3 mm
05:10 PM 50.4°F10.2°C 40.3°F4.6°C 68% 5.0 mph SE8.0 kmh SE 12.0 mph19.3 kmh 29.19 in988.5 mb 0.00 in0.0 mm 0.00 in0.0 mm 0.01 in0.3 mm
05:30 PM 49.9°F9.9°C 40.2°F4.6°C 69% 6.0 mph SSE9.7 kmh SSE 6.0 mph9.7 kmh 29.20 in988.8 mb 0.00 in0.0 mm 0.00 in0.0 mm 0.01 in0.3 mm
05:40 PM 50.0°F10.0°C 40.2°F4.6°C 69% 10.0 mph SE16.1 kmh SE 16.0 mph25.7 kmh 29.20 in988.8 mb 0.00 in0.0 mm 0.00 in0.0 mm 0.01 in0.3 mm
06:00 PM 49.9°F9.9°C 40.2°F4.6°C 69% 3.0 mph SE4.8 kmh SE 6.0 mph9.7 kmh 29.20 in988.8 mb 0.00 in0.0 mm 0.00 in0.0 mm 0.01 in0.3 mm
06:10 PM 49.7°F9.8°C 40.7°F4.8°C 71% 6.0 mph SE9.7 kmh SE 14.0 mph22.5 kmh 29.21 in989.2 mb 0.00 in0.0 mm 0.00 in0.0 mm 0.01 in0.3 mm
06:30 PM 49.5°F9.7°C 40.9°F4.9°C 72% 7.0 mph ESE11.3 kmh ESE 7.0 mph11.3 kmh 29.22 in989.5 mb 0.00 in0.0 mm 0.00 in0.0 mm 0.01 in0.3 mm
06:40 PM 49.2°F9.6°C 40.2°F4.6°C 71% 2.0 mph SE3.2 kmh SE 11.0 mph17.7 kmh 29.22 in989.5 mb 0.00 in0.0 mm 0.00 in0.0 mm 0.01 in0.3 mm
07:00 PM 48.9°F9.4°C 40.6°F4.8°C 73% 11.0 mph SE17.7 kmh SE 11.0 mph17.7 kmh 29.22 in989.5 mb 0.00 in0.0 mm 0.00 in0.0 mm 0.01 in0.3 mm
07:10 PM 48.8°F9.3°C 40.5°F4.7°C 73% Calm Calm 11.0 mph17.7 kmh 29.23 in989.8 mb 0.00 in0.0 mm 0.00 in0.0 mm 0.01 in0.3 mm
07:30 PM 48.5°F9.2°C 40.3°F4.6°C 73% 3.0 mph ESE4.8 kmh ESE 3.0 mph4.8 kmh 29.23 in989.8 mb 0.00 in0.0 mm 0.00 in0.0 mm 0.01 in0.3 mm
07:40 PM 48.8°F9.3°C 40.5°F4.7°C 73% 4.0 mph SE6.4 kmh SE 12.0 mph19.3 kmh 29.23 in989.8 mb 0.00 in0.0 mm 0.00 in0.0 mm 0.01 in0.3 mm
08:00 PM 49.1°F9.5°C 40.5°F4.7°C 72% 5.0 mph SE8.0 kmh SE 10.0 mph16.1 kmh 29.24 in990.2 mb 0.00 in0.0 mm 0.00 in0.0 mm 0.01 in0.3 mm
08:10 PM 49.2°F9.6°C 40.6°F4.8°C 72% 12.0 mph SE19.3 kmh SE 19.0 mph30.6 kmh 29.24 in990.2 mb 0.00 in0.0 mm 0.00 in0.0 mm 0.01 in0.3 mm
08:30 PM 49.1°F9.5°C 40.5°F4.7°C 72% 7.0 mph SE11.3 kmh SE 7.0 mph11.3 kmh 29.25 in990.5 mb 0.00 in0.0 mm 0.00 in0.0 mm 0.01 in0.3 mm
08:40 PM 48.9°F9.4°C 40.3°F4.6°C 72% 11.0 mph SE17.7 kmh SE 15.0 mph24.1 kmh 29.25 in990.5 mb 0.00 in0.0 mm 0.00 in0.0 mm 0.01 in0.3 mm
09:00 PM 48.9°F9.4°C 40.6°F4.8°C 73% 6.0 mph SE9.7 kmh SE 9.0 mph14.5 kmh 29.26 in990.9 mb 0.00 in0.0 mm 0.00 in0.0 mm 0.01 in0.3 mm
09:10 PM 48.7°F9.3°C 40.8°F4.9°C 74% 5.0 mph SE8.0 kmh SE 10.0 mph16.1 kmh 29.26 in990.9 mb 0.00 in0.0 mm 0.00 in0.0 mm 0.01 in0.3 mm
09:30 PM 48.5°F9.2°C 40.6°F4.8°C 74% 10.0 mph SE16.1 kmh SE 10.0 mph16.1 kmh 29.27 in991.2 mb 0.00 in0.0 mm 0.00 in0.0 mm 0.01 in0.3 mm
09:40 PM 48.7°F9.3°C 40.5°F4.7°C 73% 11.0 mph SE17.7 kmh SE 16.0 mph25.7 kmh 29.27 in991.2 mb 0.00 in0.0 mm 0.00 in0.0 mm 0.01 in0.3 mm
10:00 PM 48.7°F9.3°C 40.1°F4.5°C 72% 7.0 mph SE11.3 kmh SE 7.0 mph11.3 kmh 29.28 in991.5 mb 0.00 in0.0 mm 0.00 in0.0 mm 0.01 in0.3 mm
10:10 PM 48.6°F9.2°C 40.0°F4.4°C 72% 1.0 mph ESE1.6 kmh ESE 13.0 mph20.9 kmh 29.28 in991.5 mb 0.00 in0.0 mm 0.00 in0.0 mm 0.01 in0.3 mm
10:30 PM 48.2°F9.0°C 40.0°F4.4°C 73% 5.0 mph SE8.0 kmh SE 5.0 mph8.0 kmh 29.29 in991.9 mb 0.00 in0.0 mm 0.00 in0.0 mm 0.01 in0.3 mm
10:40 PM 48.1°F8.9°C 40.2°F4.6°C 74% Calm Calm 7.0 mph11.3 kmh 29.30 in992.2 mb 0.00 in0.0 mm 0.00 in0.0 mm 0.01 in0.3 mm
11:00 PM 47.2°F8.4°C 40.0°F4.4°C 76% Calm Calm -- 29.30 in992.2 mb 0.00 in0.0 mm 0.00 in0.0 mm 0.01 in0.3 mm
11:10 PM 46.8°F8.2°C 39.7°F4.3°C 76% 2.0 mph E3.2 kmh E 8.0 mph12.9 kmh 29.30 in992.2 mb 0.00 in0.0 mm 0.00 in0.0 mm 0.01 in0.3 mm
11:30 PM 46.6°F8.1°C 39.8°F4.3°C 77% 3.0 mph ESE4.8 kmh ESE 3.0 mph4.8 kmh 29.30 in992.2 mb 0.00 in0.0 mm 0.00 in0.0 mm 0.01 in0.3 mm
11:40 PM 46.9°F8.3°C 39.7°F4.3°C 76% 5.0 mph SE8.0 kmh SE 9.0 mph14.5 kmh 29.30 in992.2 mb 0.00 in0.0 mm 0.00 in0.0 mm 0.01 in0.3 mm